Disclaimer

Please do not use the information listed here in-flight or in-navigation, as they are not provided to us by the airports but are provided by volunteers, so they might be outdated.

Search


Regions


Airport information page

Radio informations:
Tower (TWR) - 118.1 MHz
Approach (APP) - 120.0 MHz

Airport informations:
Latitude: 35° 24' 03.94" N
Longitude: 035° 56' 55.25" E
Elevation: 157 feet - 48 meters
Operating hours: N/A
Operating agency: Military-civil joint use airport
Timezone: UTC+2(+3DT)
Fuel: Jet A1, without icing nhibitor.

Runway information:
17/35 - 9175 x 148 feet< - >2797 x 45 meters

Recent METARs:
OSLK 201600Z 12006KT 9999 FEW026 SCT030 BKN100 20/13 Q1021
OSLK 201600Z 12006KT 9999 FEW026 SCT030 BKN100 20/13 Q1021
OSLK 201700Z 08004KT 9999 FEW030 BKN100 17/14 Q1020

Airport on the map: